createdAt,value
2018-12-06T00:00:14.087Z,9.00
2018-12-06T00:02:48.119Z,9.10
2018-12-06T00:05:22.175Z,9.10
2018-12-06T00:08:07.563Z,9.10
2018-12-06T00:10:41.586Z,9.10
2018-12-06T00:13:16.754Z,9.20
2018-12-06T00:15:50.807Z,9.40
2018-12-06T00:18:24.837Z,9.60
2018-12-06T00:20:58.878Z,9.60
2018-12-06T00:23:37.967Z,9.60
2018-12-06T00:26:11.993Z,9.50
2018-12-06T00:28:46.049Z,9.70
2018-12-06T00:31:20.098Z,9.80
2018-12-06T00:33:54.229Z,9.80
2018-12-06T00:36:28.278Z,9.90
2018-12-06T00:39:02.506Z,9.90
2018-12-06T00:41:36.551Z,9.90
2018-12-06T00:44:10.678Z,10.00
2018-12-06T00:46:44.760Z,10.10
2018-12-06T00:49:18.806Z,10.10
2018-12-06T00:51:52.838Z,9.80
2018-12-06T00:54:32.033Z,9.70
2018-12-06T00:57:06.070Z,9.70
2018-12-06T00:59:40.114Z,9.50
2018-12-06T01:02:14.148Z,9.40
2018-12-06T01:04:48.279Z,9.40
2018-12-06T01:07:22.313Z,9.50
2018-12-06T01:09:56.383Z,9.60
2018-12-06T01:12:30.562Z,9.50
2018-12-06T01:15:05.675Z,9.30
2018-12-06T01:17:39.691Z,9.20
2018-12-06T01:20:13.959Z,9.10
2018-12-06T01:22:48.066Z,9.10
2018-12-06T01:25:22.231Z,9.00
2018-12-06T01:27:56.265Z,9.20
2018-12-06T01:30:30.326Z,9.30
2018-12-06T01:33:04.467Z,9.10
2018-12-06T01:35:39.585Z,9.00
2018-12-06T01:38:13.618Z,9.20
2018-12-06T01:40:47.666Z,9.30
2018-12-06T01:43:21.718Z,9.40
2018-12-06T01:45:55.831Z,9.40
2018-12-06T01:48:30.163Z,9.40
2018-12-06T01:51:04.213Z,9.40
2018-12-06T01:53:38.235Z,9.40
2018-12-06T01:56:12.282Z,9.40
2018-12-06T01:58:46.314Z,9.20
2018-12-06T02:01:20.358Z,9.30
2018-12-06T02:03:54.418Z,9.40
2018-12-06T02:06:28.526Z,9.50
2018-12-06T02:09:02.701Z,9.50
2018-12-06T02:11:36.798Z,9.60
2018-12-06T02:14:10.978Z,9.60
2018-12-06T02:16:46.203Z,9.60
2018-12-06T02:19:20.387Z,9.60
2018-12-06T02:21:54.427Z,9.60
2018-12-06T02:24:28.476Z,9.70
2018-12-06T02:27:03.060Z,9.80
2018-12-06T02:29:42.607Z,9.90
2018-12-06T02:32:16.650Z,9.90
2018-12-06T02:34:50.699Z,9.90
2018-12-06T02:37:24.725Z,9.80
2018-12-06T02:39:58.762Z,9.80
2018-12-06T02:42:32.817Z,9.80
2018-12-06T02:45:07.195Z,9.80
2018-12-06T02:47:41.328Z,9.90
2018-12-06T02:50:15.361Z,9.80
2018-12-06T02:52:49.394Z,9.70
2018-12-06T02:55:23.460Z,9.70
2018-12-06T02:57:57.502Z,9.60
2018-12-06T03:00:31.575Z,9.70
2018-12-06T03:03:05.604Z,9.80
2018-12-06T03:05:39.675Z,9.90
2018-12-06T03:08:13.690Z,9.90
2018-12-06T03:10:47.828Z,9.90
2018-12-06T03:13:21.851Z,9.90
2018-12-06T03:15:57.015Z,10.00
2018-12-06T03:18:31.070Z,10.00
2018-12-06T03:21:09.095Z,10.00
2018-12-06T03:23:43.131Z,10.00
2018-12-06T03:26:17.194Z,10.10
2018-12-06T03:28:51.227Z,10.10
2018-12-06T03:31:25.368Z,10.10
2018-12-06T03:33:59.417Z,10.10
2018-12-06T03:36:33.478Z,10.10
2018-12-06T03:39:08.348Z,10.10
2018-12-06T03:41:42.410Z,10.20
2018-12-06T03:44:16.450Z,10.30
2018-12-06T03:46:50.804Z,10.30
2018-12-06T03:49:24.846Z,10.30
2018-12-06T03:51:59.032Z,10.40
2018-12-06T03:54:33.097Z,10.40
2018-12-06T03:57:07.134Z,10.30
2018-12-06T03:59:41.190Z,10.30
2018-12-06T04:02:15.240Z,10.40
2018-12-06T04:04:49.299Z,10.40
2018-12-06T04:07:23.354Z,10.40
2018-12-06T04:09:57.411Z,10.50
2018-12-06T04:12:31.555Z,10.50
2018-12-06T04:15:06.263Z,10.50
2018-12-06T04:17:40.446Z,10.50
2018-12-06T04:20:14.479Z,10.50
2018-12-06T04:22:48.632Z,10.60
2018-12-06T04:25:22.674Z,10.60
2018-12-06T04:27:56.736Z,10.60
2018-12-06T04:30:30.800Z,10.60
2018-12-06T04:33:04.870Z,10.60
2018-12-06T04:35:39.039Z,10.70
2018-12-06T04:38:13.107Z,10.70
2018-12-06T04:40:47.159Z,10.70
2018-12-06T04:43:21.206Z,10.80
2018-12-06T04:45:55.278Z,10.90
2018-12-06T04:48:29.310Z,10.90
2018-12-06T04:51:03.758Z,10.90
2018-12-06T04:53:37.906Z,10.90
2018-12-06T04:56:11.984Z,10.90
2018-12-06T04:58:46.055Z,10.90
2018-12-06T05:01:20.088Z,11.00
2018-12-06T05:03:54.780Z,11.00
2018-12-06T05:06:28.827Z,11.00
2018-12-06T05:09:04.472Z,11.00
2018-12-06T05:11:38.518Z,11.10
2018-12-06T05:14:14.678Z,11.10
2018-12-06T05:16:48.732Z,11.10
2018-12-06T05:19:22.780Z,11.10
2018-12-06T05:21:56.837Z,11.20
2018-12-06T05:24:37.451Z,11.20
2018-12-06T05:27:11.518Z,11.20
2018-12-06T05:29:45.574Z,11.20
2018-12-06T05:32:19.656Z,11.20
2018-12-06T05:34:53.727Z,11.20
2018-12-06T05:37:27.783Z,11.20
2018-12-06T05:40:01.955Z,11.30
2018-12-06T05:42:35.999Z,11.30
2018-12-06T05:45:14.554Z,11.30
2018-12-06T05:47:48.607Z,11.30
2018-12-06T05:50:22.667Z,11.30
2018-12-06T05:52:56.731Z,11.40
2018-12-06T05:55:30.782Z,11.30
2018-12-06T05:58:06.039Z,11.30
2018-12-06T06:00:40.205Z,11.30
2018-12-06T06:03:14.238Z,11.30
2018-12-06T06:05:48.298Z,11.40
2018-12-06T06:08:22.333Z,11.40
2018-12-06T06:10:56.443Z,11.40
2018-12-06T06:13:30.503Z,11.30
2018-12-06T06:16:04.704Z,11.40
2018-12-06T06:18:38.879Z,11.50
2018-12-06T06:21:12.935Z,11.50
2018-12-06T06:23:46.974Z,11.50
2018-12-06T06:26:21.047Z,11.40
2018-12-06T06:28:55.203Z,11.40
2018-12-06T06:31:29.277Z,11.50
2018-12-06T06:34:03.706Z,11.50
2018-12-06T06:36:37.766Z,11.40
2018-12-06T06:39:11.806Z,11.50
2018-12-06T06:41:48.978Z,11.50
2018-12-06T06:44:23.053Z,11.50
2018-12-06T06:46:57.189Z,11.50
2018-12-06T06:49:31.307Z,11.80
2018-12-06T06:52:05.370Z,11.70
2018-12-06T06:54:39.430Z,11.70
2018-12-06T06:57:13.479Z,11.70
2018-12-06T06:59:47.515Z,11.60
2018-12-06T07:02:21.566Z,11.70
2018-12-06T07:04:55.611Z,11.80
2018-12-06T07:07:29.670Z,11.70
2018-12-06T07:10:04.869Z,11.70
2018-12-06T07:12:38.930Z,11.70
2018-12-06T07:15:13.294Z,11.70
2018-12-06T07:17:47.359Z,11.60
2018-12-06T07:20:21.420Z,11.50
2018-12-06T07:22:55.457Z,11.60
2018-12-06T07:25:29.530Z,11.50
2018-12-06T07:28:03.599Z,11.60
2018-12-06T07:30:37.718Z,11.70
2018-12-06T07:33:11.788Z,11.70
2018-12-06T07:35:45.926Z,11.60
2018-12-06T07:38:19.990Z,11.70
2018-12-06T07:40:56.158Z,11.70
2018-12-06T07:43:30.195Z,11.60
2018-12-06T07:46:11.206Z,11.60
2018-12-06T07:48:45.243Z,11.60
2018-12-06T07:51:19.311Z,11.60
2018-12-06T07:53:53.502Z,11.60
2018-12-06T07:56:27.699Z,11.60
2018-12-06T08:01:44.915Z,11.60
2018-12-06T08:04:19.943Z,11.60
2018-12-06T08:06:54.014Z,11.60
2018-12-06T08:09:28.075Z,11.60
2018-12-06T08:12:02.359Z,11.60
2018-12-06T08:14:36.403Z,11.60
2018-12-06T08:17:10.471Z,11.70
2018-12-06T08:19:44.511Z,11.70
2018-12-06T08:22:18.658Z,11.70
2018-12-06T08:24:52.699Z,11.70
2018-12-06T08:27:26.762Z,11.70
2018-12-06T08:30:00.806Z,11.70
2018-12-06T08:32:34.902Z,11.70
2018-12-06T08:35:09.230Z,11.70
2018-12-06T08:37:43.307Z,11.80
2018-12-06T08:40:17.369Z,11.80
2018-12-06T08:42:53.528Z,11.90
2018-12-06T08:45:27.582Z,12.00
2018-12-06T08:48:01.660Z,12.00
2018-12-06T08:50:35.779Z,12.10
2018-12-06T08:53:09.887Z,12.20
2018-12-06T08:55:43.975Z,12.20
2018-12-06T08:58:18.014Z,12.20
2018-12-06T09:00:52.087Z,12.30
2018-12-06T09:03:26.141Z,12.20
2018-12-06T09:06:00.198Z,12.30
2018-12-06T09:08:34.766Z,12.30
2018-12-06T09:11:10.874Z,12.30
2018-12-06T09:13:44.949Z,12.30
2018-12-06T09:16:18.985Z,12.40
2018-12-06T09:18:53.145Z,12.40
2018-12-06T09:21:27.210Z,12.50
2018-12-06T09:24:01.415Z,12.50
2018-12-06T09:26:35.482Z,12.50
2018-12-06T09:29:09.518Z,12.50
2018-12-06T09:31:43.618Z,12.50
2018-12-06T09:34:17.698Z,12.60
2018-12-06T09:36:51.735Z,12.70
2018-12-06T09:39:26.874Z,12.70
2018-12-06T09:42:01.461Z,12.70
2018-12-06T09:44:35.531Z,12.70
2018-12-06T09:47:09.570Z,12.80
2018-12-06T09:49:43.640Z,12.80
2018-12-06T09:52:17.682Z,12.90
2018-12-06T09:54:51.966Z,12.90
2018-12-06T09:57:26.063Z,12.90
2018-12-06T10:00:00.106Z,12.90
2018-12-06T10:02:34.481Z,13.00
2018-12-06T10:05:08.800Z,12.90
2018-12-06T10:07:42.967Z,13.00
2018-12-06T10:10:17.002Z,13.00
2018-12-06T10:12:51.058Z,12.90
2018-12-06T10:15:25.759Z,13.00
2018-12-06T10:17:59.839Z,13.00
2018-12-06T10:20:33.995Z,13.00
2018-12-06T10:23:08.067Z,13.00
2018-12-06T10:25:42.146Z,13.00
2018-12-06T10:28:16.206Z,13.00
2018-12-06T10:30:50.330Z,13.00
2018-12-06T10:33:24.415Z,13.00
2018-12-06T10:35:58.459Z,13.00
2018-12-06T10:38:32.535Z,13.00
2018-12-06T10:41:06.584Z,13.10
2018-12-06T10:43:40.655Z,13.00
2018-12-06T10:46:14.694Z,13.00
2018-12-06T10:48:48.765Z,13.00
2018-12-06T10:51:34.300Z,13.00
2018-12-06T10:54:08.530Z,13.00
2018-12-06T10:56:42.578Z,13.00
2018-12-06T10:59:16.636Z,13.10
2018-12-06T11:01:56.303Z,13.00
2018-12-06T11:04:36.390Z,13.00
2018-12-06T11:07:10.482Z,13.10
2018-12-06T11:09:44.522Z,13.10
2018-12-06T11:12:18.594Z,13.10
2018-12-06T11:14:52.682Z,13.10
2018-12-06T11:17:26.735Z,13.10
2018-12-06T11:20:00.838Z,13.10
2018-12-06T11:22:34.909Z,13.20
2018-12-06T11:25:09.212Z,13.20
2018-12-06T11:27:43.262Z,13.20
2018-12-06T11:30:17.327Z,13.20
2018-12-06T11:32:51.370Z,13.30
2018-12-06T11:35:25.435Z,13.30
2018-12-06T11:37:59.494Z,13.20
2018-12-06T11:40:33.634Z,13.30
2018-12-06T11:43:07.682Z,13.30
2018-12-06T11:45:41.747Z,13.20
2018-12-06T11:48:15.804Z,13.20
2018-12-06T11:50:49.882Z,13.30
2018-12-06T11:53:25.055Z,13.30
2018-12-06T11:55:59.107Z,13.30
2018-12-06T11:58:34.142Z,13.30
2018-12-06T12:01:08.191Z,13.40
2018-12-06T12:03:42.250Z,13.40
2018-12-06T12:06:16.314Z,13.40
2018-12-06T12:08:50.383Z,13.40
2018-12-06T12:11:24.429Z,13.50
2018-12-06T12:13:58.499Z,13.50
2018-12-06T12:16:32.643Z,13.60
2018-12-06T12:19:06.699Z,13.50
2018-12-06T12:21:40.747Z,13.60
2018-12-06T12:24:14.802Z,13.60
2018-12-06T12:26:48.851Z,13.60
2018-12-06T12:29:23.010Z,13.60
2018-12-06T12:31:57.087Z,13.70
2018-12-06T12:34:31.374Z,13.60
2018-12-06T12:37:05.555Z,13.70
2018-12-06T12:39:40.512Z,13.70
2018-12-06T12:42:14.558Z,13.70
2018-12-06T12:44:48.620Z,13.70
2018-12-06T12:47:22.694Z,13.70
2018-12-06T12:49:56.858Z,13.80
2018-12-06T12:52:30.913Z,13.70
2018-12-06T12:55:06.191Z,13.70
2018-12-06T12:57:40.304Z,13.80
2018-12-06T13:00:14.635Z,13.90
2018-12-06T13:02:48.719Z,13.90
2018-12-06T13:05:22.791Z,14.00
2018-12-06T13:07:56.833Z,14.00
2018-12-06T13:10:30.902Z,14.00
2018-12-06T13:13:04.963Z,14.10
2018-12-06T13:15:39.141Z,14.10
2018-12-06T13:18:13.202Z,14.00
2018-12-06T13:20:49.284Z,14.10
2018-12-06T13:23:23.490Z,14.10
2018-12-06T13:25:57.737Z,14.20
2018-12-06T13:28:31.812Z,14.20
2018-12-06T13:31:06.036Z,14.20
2018-12-06T13:33:40.130Z,14.20
2018-12-06T13:36:14.219Z,14.20
2018-12-06T13:38:48.314Z,14.10
2018-12-06T13:41:22.482Z,14.10
2018-12-06T13:43:56.725Z,14.10
2018-12-06T13:46:30.926Z,14.10
2018-12-06T13:49:05.002Z,14.00
2018-12-06T13:51:39.200Z,14.00
2018-12-06T13:54:13.480Z,14.00
2018-12-06T13:56:48.598Z,14.00
2018-12-06T13:59:22.654Z,14.00
2018-12-06T14:01:56.807Z,14.10
2018-12-06T14:04:30.930Z,14.10
2018-12-06T14:07:14.540Z,14.10
2018-12-06T14:09:48.603Z,14.00
2018-12-06T14:12:23.886Z,14.00
2018-12-06T14:15:02.265Z,14.00
2018-12-06T14:17:36.347Z,14.00
2018-12-06T14:20:10.442Z,14.00
2018-12-06T14:22:44.530Z,14.00
2018-12-06T14:25:18.605Z,14.00
2018-12-06T14:27:52.702Z,14.00
2018-12-06T14:30:26.769Z,14.00
2018-12-06T14:33:00.851Z,14.00
2018-12-06T14:35:35.048Z,13.90
2018-12-06T14:38:09.109Z,14.00
2018-12-06T14:40:43.231Z,14.10
2018-12-06T14:43:17.631Z,14.10
2018-12-06T14:45:52.231Z,14.00
2018-12-06T14:48:26.626Z,14.10
2018-12-06T14:51:00.710Z,14.00
2018-12-06T14:53:34.743Z,14.00
2018-12-06T14:56:08.909Z,14.00
2018-12-06T14:58:42.959Z,14.10
2018-12-06T15:01:17.102Z,14.10
2018-12-06T15:03:51.218Z,14.10
2018-12-06T15:06:25.278Z,14.10
2018-12-06T15:08:59.375Z,14.20
2018-12-06T15:11:33.462Z,14.20
2018-12-06T15:14:07.505Z,14.10
2018-12-06T15:16:41.694Z,14.10
2018-12-06T15:19:15.757Z,14.10
2018-12-06T15:21:49.839Z,14.10
2018-12-06T15:24:25.982Z,14.00
2018-12-06T15:27:00.026Z,14.00
2018-12-06T15:29:34.547Z,14.00
2018-12-06T15:32:08.594Z,14.00
2018-12-06T15:34:42.678Z,13.90
2018-12-06T15:37:16.838Z,13.90
2018-12-06T15:39:51.008Z,14.00
2018-12-06T15:42:25.130Z,14.00
2018-12-06T15:44:59.190Z,14.00
2018-12-06T15:47:33.251Z,14.00
2018-12-06T15:50:07.578Z,14.10
2018-12-06T15:52:41.631Z,14.10
2018-12-06T15:55:15.716Z,14.00
2018-12-06T15:57:49.753Z,14.00
2018-12-06T16:00:23.830Z,14.00
2018-12-06T16:02:57.883Z,14.00
2018-12-06T16:05:31.992Z,14.00
2018-12-06T16:08:06.258Z,13.90
2018-12-06T16:10:40.342Z,13.90
2018-12-06T16:13:14.417Z,14.00
2018-12-06T16:15:48.541Z,13.80
2018-12-06T16:18:22.741Z,13.90
2018-12-06T16:20:56.802Z,14.00
2018-12-06T16:24:09.110Z,14.00
2018-12-06T16:26:43.286Z,14.00
2018-12-06T16:29:18.415Z,14.00
2018-12-06T16:31:52.571Z,14.00
2018-12-06T16:34:26.607Z,14.00
2018-12-06T16:37:00.754Z,14.00
2018-12-06T16:39:34.802Z,14.00
2018-12-06T16:42:08.858Z,14.10
2018-12-06T16:44:43.879Z,14.30
2018-12-06T16:47:18.038Z,14.60
2018-12-06T16:49:53.214Z,14.70
2018-12-06T16:52:27.691Z,14.60
2018-12-06T16:55:01.872Z,14.50
2018-12-06T16:57:37.170Z,14.40
2018-12-06T17:00:14.671Z,14.30
2018-12-06T17:02:48.993Z,14.30
2018-12-06T17:05:23.090Z,14.20
2018-12-06T17:07:58.305Z,14.30
2018-12-06T17:10:32.347Z,14.30
2018-12-06T17:13:06.443Z,14.20
2018-12-06T17:15:40.941Z,14.10
2018-12-06T17:18:15.023Z,14.10
2018-12-06T17:20:49.098Z,14.20
2018-12-06T17:23:23.173Z,14.10
2018-12-06T17:25:57.219Z,14.10
2018-12-06T17:28:32.430Z,14.10
2018-12-06T17:31:06.519Z,14.20
2018-12-06T17:33:40.578Z,14.10
2018-12-06T17:36:14.737Z,14.10
2018-12-06T17:38:48.842Z,14.10
2018-12-06T17:41:22.926Z,14.10
2018-12-06T17:43:58.113Z,14.10
2018-12-06T17:46:32.275Z,14.00
2018-12-06T17:49:06.314Z,14.00
2018-12-06T17:51:40.382Z,14.00
2018-12-06T17:54:14.419Z,14.00
2018-12-06T17:56:49.695Z,13.90
2018-12-06T17:59:23.766Z,14.00
2018-12-06T18:01:58.905Z,14.00
2018-12-06T18:04:33.019Z,13.90
2018-12-06T18:07:09.177Z,13.90
2018-12-06T18:10:05.920Z,14.00
2018-12-06T18:12:40.006Z,13.90
2018-12-06T18:15:16.411Z,13.80
2018-12-06T18:17:50.522Z,13.80
2018-12-06T18:20:24.554Z,13.80
2018-12-06T18:22:58.643Z,13.80
2018-12-06T18:25:32.747Z,13.80
2018-12-06T18:28:07.883Z,13.80
2018-12-06T18:30:41.994Z,13.80
2018-12-06T18:33:16.126Z,13.80
2018-12-06T18:35:50.162Z,13.80
2018-12-06T18:38:24.606Z,13.70
2018-12-06T18:40:58.814Z,13.70
2018-12-06T18:43:32.887Z,13.80
2018-12-06T18:46:10.970Z,13.80
2018-12-06T18:48:45.013Z,13.80
2018-12-06T18:51:19.056Z,13.80
2018-12-06T18:53:53.414Z,13.80
2018-12-06T18:56:27.591Z,13.80
2018-12-06T18:59:01.668Z,13.80
2018-12-06T19:01:36.763Z,13.90
2018-12-06T19:04:10.838Z,13.90
2018-12-06T19:06:45.263Z,14.00
2018-12-06T19:09:19.442Z,13.90
2018-12-06T19:11:53.557Z,13.90
2018-12-06T19:14:27.824Z,14.00
2018-12-06T19:17:04.031Z,13.90
2018-12-06T19:19:39.371Z,14.00
2018-12-06T19:22:13.426Z,14.00
2018-12-06T19:24:47.470Z,14.00
2018-12-06T19:27:25.546Z,14.10
2018-12-06T19:29:59.604Z,14.00
2018-12-06T19:32:33.758Z,14.00
2018-12-06T19:35:08.052Z,14.10
2018-12-06T19:37:42.772Z,14.00
2018-12-06T19:40:16.802Z,14.10
2018-12-06T19:42:50.899Z,14.10
2018-12-06T19:45:24.939Z,14.00
2018-12-06T19:48:01.550Z,14.10
2018-12-06T19:50:35.609Z,14.00
2018-12-06T19:53:10.752Z,14.00
2018-12-06T19:55:44.830Z,14.10
2018-12-06T19:58:19.014Z,14.00
2018-12-06T20:00:53.154Z,13.90
2018-12-06T20:03:27.218Z,14.00
2018-12-06T20:06:01.571Z,14.10
2018-12-06T20:08:35.690Z,14.00
2018-12-06T20:11:09.734Z,14.10
2018-12-06T20:13:43.811Z,14.10
2018-12-06T20:16:21.829Z,14.10
2018-12-06T20:18:55.931Z,14.10
2018-12-06T20:21:30.095Z,14.00
2018-12-06T20:24:04.145Z,14.00
2018-12-06T20:26:38.234Z,14.00
2018-12-06T20:29:12.429Z,14.10
2018-12-06T20:31:46.532Z,14.10
2018-12-06T20:34:20.631Z,14.10
2018-12-06T20:36:54.733Z,14.10
2018-12-06T20:39:28.898Z,14.20
2018-12-06T20:42:03.271Z,14.10
2018-12-06T20:44:37.517Z,14.10
2018-12-06T20:47:17.091Z,14.10
2018-12-06T20:49:51.163Z,14.10
2018-12-06T20:52:25.255Z,14.10
2018-12-06T20:54:59.422Z,14.10
2018-12-06T20:57:37.112Z,14.10
2018-12-06T21:00:09.918Z,14.10
2018-12-06T21:02:43.982Z,14.10
2018-12-06T21:05:18.062Z,14.20
2018-12-06T21:07:53.198Z,14.20
2018-12-06T21:10:27.339Z,14.20
2018-12-06T21:13:01.607Z,14.10
2018-12-06T21:15:35.741Z,14.10
2018-12-06T21:18:09.866Z,14.10
2018-12-06T21:20:45.001Z,14.10
2018-12-06T21:23:19.130Z,14.10
2018-12-06T21:25:53.168Z,14.00
2018-12-06T21:28:27.251Z,14.10
2018-12-06T21:31:01.399Z,14.10
2018-12-06T21:33:35.466Z,14.10
2018-12-06T21:36:09.535Z,14.10
2018-12-06T21:38:43.609Z,14.10
2018-12-06T21:41:17.655Z,14.20
2018-12-06T21:43:51.730Z,14.10
2018-12-06T21:46:25.770Z,14.20
2018-12-06T21:48:59.836Z,14.10
2018-12-06T21:51:34.011Z,14.10
2018-12-06T21:54:08.066Z,14.10
2018-12-06T21:56:42.182Z,14.10
2018-12-06T21:59:18.264Z,14.10
2018-12-06T22:02:02.495Z,14.10
2018-12-06T22:04:37.622Z,14.10
2018-12-06T22:07:11.749Z,14.20
2018-12-06T22:09:45.930Z,14.20
2018-12-06T22:12:19.952Z,14.10
2018-12-06T22:14:54.022Z,14.20
2018-12-06T22:17:28.077Z,14.20
2018-12-06T22:20:02.365Z,14.20
2018-12-06T22:22:36.416Z,14.20
2018-12-06T22:25:10.516Z,14.10
2018-12-06T22:27:44.672Z,14.20
2018-12-06T22:30:18.750Z,14.20
2018-12-06T22:32:52.825Z,14.20
2018-12-06T22:35:31.004Z,14.10
2018-12-06T22:38:05.118Z,14.10
2018-12-06T22:40:39.272Z,14.20
2018-12-06T22:43:13.351Z,14.20
2018-12-06T22:45:59.621Z,14.20
2018-12-06T22:48:34.347Z,14.10
2018-12-06T22:51:08.411Z,14.20
2018-12-06T22:53:42.482Z,14.10
2018-12-06T22:56:16.539Z,14.20
2018-12-06T22:58:50.599Z,14.20
2018-12-06T23:01:29.995Z,14.20
2018-12-06T23:04:04.310Z,14.20
2018-12-06T23:06:38.354Z,14.20
2018-12-06T23:09:12.439Z,14.20
2018-12-06T23:11:46.605Z,14.20
2018-12-06T23:14:20.654Z,14.20
2018-12-06T23:16:54.810Z,14.20
2018-12-06T23:19:31.687Z,14.10
2018-12-06T23:22:06.196Z,14.20
2018-12-06T23:24:40.250Z,14.10
2018-12-06T23:27:14.333Z,14.10
2018-12-06T23:29:48.390Z,14.10
2018-12-06T23:32:22.489Z,14.10
2018-12-06T23:34:56.527Z,14.10
2018-12-06T23:37:30.594Z,14.10
2018-12-06T23:40:05.236Z,14.10
2018-12-06T23:42:39.306Z,14.20
2018-12-06T23:45:13.367Z,14.10
2018-12-06T23:47:47.406Z,14.20
2018-12-06T23:50:21.480Z,14.20
2018-12-06T23:52:55.518Z,14.20
2018-12-06T23:55:29.822Z,14.10
2018-12-06T23:58:03.883Z,14.00
